Time;durP1;ratioP1;P1;durP2;ratioP2;P2;SDS_P1;SDS_P2;PMS_P1;PMS_P2;Temp;Humidity;BMP_temperature;BMP_pressure;BME280_temperature;BME280_humidity;BME280_pressure;Samples;Min_cycle;Max_cycle;Signal;HPM_P1;HPM_P2
2022/10/29 00:00:50;;;;;;;10.10;7.13;;;19.50;62.90;;;;;;5035176;28;20246;-67
2022/10/29 00:03:17;;;;;;;11.38;7.30;;;19.50;62.90;;;;;;5034710;28;20267;-67
2022/10/29 00:11:39;;;;;;;11.00;6.63;;;19.50;62.90;;;;;;1781659;22;20673;-66
2022/10/29 00:14:07;;;;;;;9.68;6.55;;;19.50;63.00;;;;;;5089217;22;20282;-66
2022/10/29 00:16:36;;;;;;;10.75;6.25;;;19.50;63.10;;;;;;5034155;28;20200;-64
2022/10/29 00:19:03;;;;;;;9.45;6.15;;;19.50;63.00;;;;;;5033877;28;20562;-64
2022/10/29 00:21:30;;;;;;;9.73;6.38;;;19.50;62.90;;;;;;5034118;28;20207;-66
2022/10/29 00:23:57;;;;;;;8.98;6.30;;;19.50;63.00;;;;;;5034187;28;20200;-66
2022/10/29 00:26:25;;;;;;;10.30;6.40;;;19.50;62.90;;;;;;5034304;28;20199;-66
2022/10/29 00:28:53;;;;;;;9.30;6.45;;;19.50;62.90;;;;;;5034349;28;20230;-66
2022/10/29 00:31:23;;;;;;;9.88;6.18;;;19.50;63.10;;;;;;5033982;28;20231;-66
2022/10/29 00:33:50;;;;;;;8.95;6.10;;;19.50;63.20;;;;;;5034106;28;20608;-66
2022/10/29 00:36:18;;;;;;;10.07;6.32;;;19.40;62.90;;;;;;5033983;28;20662;-66
2022/10/29 00:38:45;;;;;;;13.13;6.32;;;19.40;62.80;;;;;;5034234;28;20215;-66
2022/10/29 00:41:14;;;;;;;9.90;6.20;;;19.40;63.10;;;;;;5035172;28;20278;-66
2022/10/29 00:43:43;;;;;;;8.40;6.05;;;19.40;62.90;;;;;;5017697;28;20207;-66
2022/10/29 00:46:13;;;;;;;12.18;5.80;;;19.40;62.90;;;;;;5035546;28;20241;-66
2022/10/29 00:48:42;;;;;;;10.13;5.80;;;19.40;62.90;;;;;;5033694;28;20227;-66
2022/10/29 00:51:10;;;;;;;8.55;5.60;;;19.40;63.70;;;;;;5017471;28;20192;-66
2022/10/29 00:53:38;;;;;;;8.73;5.47;;;19.40;63.20;;;;;;5033778;28;20197;-66
2022/10/29 00:56:05;;;;;;;10.60;6.03;;;19.40;63.20;;;;;;5033772;28;20200;-66
2022/10/29 00:58:32;;;;;;;8.50;5.60;;;19.30;62.80;;;;;;5033543;28;20208;-66
2022/10/29 01:00:59;;;;;;;7.88;5.38;;;19.30;63.10;;;;;;5033629;28;20196;-66
2022/10/29 01:03:28;;;;;;;8.00;5.43;;;19.30;63.00;;;;;;5033647;28;20204;-66
2022/10/29 01:05:54;;;;;;;11.30;5.78;;;19.30;63.20;;;;;;5033549;28;20200;-65
2022/10/29 01:08:21;;;;;;;10.70;6.13;;;19.30;63.10;;;;;;5033368;28;20262;-65
2022/10/29 01:10:55;;;;;;;10.35;6.10;;;19.30;63.20;;;;;;5034650;28;20724;-65
2022/10/29 01:13:33;;;;;;;10.98;5.60;;;19.30;63.10;;;;;;5017333;28;20204;-65
2022/10/29 01:16:04;;;;;;;10.52;5.55;;;19.30;63.20;;;;;;5033516;28;20210;-65
2022/10/29 01:18:36;;;;;;;10.68;6.00;;;19.30;63.40;;;;;;5033342;28;20682;-65
2022/10/29 01:21:27;;;;;;;8.23;5.60;;;19.30;63.40;;;;;;5033380;28;20202;-65
2022/10/29 01:24:21;;;;;;;9.05;5.30;;;19.30;63.40;;;;;;5033804;28;20538;-65
2022/10/29 01:27:22;;;;;;;8.60;5.40;;;19.20;63.30;;;;;;5033244;28;20651;-65
2022/10/29 01:29:57;;;;;;;8.18;5.30;;;19.30;63.50;;;;;;5009690;28;20199;-65
2022/10/29 01:32:29;;;;;;;8.73;5.43;;;19.20;63.30;;;;;;5034813;28;20211;-65
2022/10/29 01:34:58;;;;;;;7.53;5.07;;;19.30;63.40;;;;;;5033441;28;20275;-65
2022/10/29 01:37:30;;;;;;;9.65;5.30;;;19.20;63.30;;;;;;5033928;28;20248;-65
2022/10/29 01:39:58;;;;;;;9.65;5.00;;;19.30;63.40;;;;;;5034682;28;20192;-65
2022/10/29 01:42:27;;;;;;;7.03;5.22;;;19.30;63.40;;;;;;5034040;28;20204;-65
2022/10/29 01:44:56;;;;;;;8.88;5.20;;;19.20;63.30;;;;;;5033336;28;20231;-65
2022/10/29 01:47:26;;;;;;;6.78;4.65;;;19.20;63.40;;;;;;5033395;28;20278;-66
2022/10/29 01:49:54;;;;;;;6.70;5.10;;;19.20;64.10;;;;;;5034347;28;20290;-66
2022/10/29 01:52:22;;;;;;;7.50;5.03;;;19.20;63.30;;;;;;5032893;28;20200;-66
2022/10/29 01:54:49;;;;;;;6.47;4.63;;;19.20;63.30;;;;;;5032965;28;20250;-66
2022/10/29 01:57:30;;;;;;;8.52;5.25;;;19.20;63.30;;;;;;5033083;28;20224;-66
2022/10/29 01:59:58;;;;;;;6.95;5.10;;;19.20;63.30;;;;;;5033374;28;20200;-66
2022/10/29 02:02:30;;;;;;;8.18;5.00;;;19.30;63.40;;;;;;5032639;28;20263;-66
2022/10/29 02:05:05;;;;;;;7.20;4.88;;;19.20;63.30;;;;;;5034436;28;20171;-66
2022/10/29 02:07:37;;;;;;;6.57;4.97;;;19.20;63.40;;;;;;5033018;28;20689;-66
2022/10/29 02:10:08;;;;;;;8.90;5.43;;;19.20;62.90;;;;;;5032911;28;20184;-66
2022/10/29 02:12:36;;;;;;;6.50;4.50;;;19.20;63.10;;;;;;5032691;28;20196;-66
2022/10/29 02:15:05;;;;;;;6.75;4.75;;;19.20;62.80;;;;;;5033166;28;20180;-66
2022/10/29 02:17:33;;;;;;;8.23;4.95;;;19.20;62.90;;;;;;5033142;28;20763;-66
2022/10/29 02:20:03;;;;;;;7.47;4.75;;;19.20;63.10;;;;;;5033928;28;20200;-66
2022/10/29 02:22:30;;;;;;;9.18;4.90;;;19.20;63.00;;;;;;5033437;28;20192;-65
2022/10/29 02:24:58;;;;;;;7.20;4.80;;;19.20;62.90;;;;;;5017054;28;20294;-65
2022/10/29 02:27:24;;;;;;;8.23;4.85;;;19.20;62.90;;;;;;5034076;28;20215;-65
2022/10/29 02:29:52;;;;;;;8.13;5.18;;;19.20;63.20;;;;;;5035083;28;20195;-65
2022/10/29 02:32:19;;;;;;;7.68;4.60;;;19.20;62.90;;;;;;5037263;28;20634;-65
2022/10/29 02:34:47;;;;;;;8.07;4.82;;;19.20;63.10;;;;;;5037841;28;20196;-65
2022/10/29 02:37:15;;;;;;;7.20;5.03;;;19.20;62.90;;;;;;5036656;28;20278;-65
2022/10/29 02:39:41;;;;;;;7.88;4.55;;;19.20;63.00;;;;;;5037746;28;20203;-65
2022/10/29 02:42:09;;;;;;;8.00;5.28;;;19.20;63.20;;;;;;5036279;28;20200;-65
2022/10/29 02:44:36;;;;;;;7.00;4.90;;;19.20;63.30;;;;;;5036470;28;20291;-65
2022/10/29 02:47:03;;;;;;;7.80;5.00;;;19.20;62.80;;;;;;5020387;28;20554;-65
2022/10/29 02:49:37;;;;;;;8.05;4.90;;;19.10;63.00;;;;;;5036053;28;20207;-65
2022/10/29 02:52:06;;;;;;;7.47;4.78;;;19.20;63.20;;;;;;5036546;28;20228;-65
2022/10/29 02:54:33;;;;;;;8.25;4.93;;;19.10;63.20;;;;;;5037453;28;20200;-65
2022/10/29 02:57:00;;;;;;;7.70;5.07;;;19.20;63.00;;;;;;5035927;28;20239;-65
2022/10/29 02:59:27;;;;;;;7.57;4.45;;;19.10;62.90;;;;;;5036213;28;20207;-65
2022/10/29 03:01:54;;;;;;;5.47;4.30;;;19.10;62.70;;;;;;5037216;28;20250;-65
2022/10/29 03:04:21;;;;;;;9.50;5.07;;;19.10;63.10;;;;;;5035820;28;20232;-65
2022/10/29 03:06:48;;;;;;;5.20;4.13;;;19.10;62.70;;;;;;5052193;28;20764;-65
2022/10/29 03:09:17;;;;;;;6.50;4.45;;;19.10;62.60;;;;;;5035655;28;20223;-65
2022/10/29 03:11:43;;;;;;;7.07;4.53;;;19.10;62.60;;;;;;5019076;28;20196;-65
2022/10/29 03:14:10;;;;;;;5.93;4.50;;;19.10;62.80;;;;;;5035157;28;20208;-65
2022/10/29 03:16:38;;;;;;;6.00;4.40;;;19.20;62.80;;;;;;5036834;28;20198;-65
2022/10/29 03:19:05;;;;;;;4.60;3.92;;;19.20;62.80;;;;;;5035414;28;20635;-66
2022/10/29 03:21:31;;;;;;;6.97;4.55;;;19.20;62.90;;;;;;5035454;28;20542;-66
2022/10/29 03:23:59;;;;;;;6.18;4.25;;;19.20;63.10;;;;;;5035253;28;20204;-66
2022/10/29 03:26:27;;;;;;;7.85;4.60;;;19.20;62.90;;;;;;5035178;28;20196;-66
2022/10/29 03:28:55;;;;;;;6.53;4.35;;;19.30;62.90;;;;;;5035097;28;20228;-66
2022/10/29 03:31:22;;;;;;;6.00;4.32;;;19.30;62.80;;;;;;5035435;28;20242;-66
2022/10/29 03:33:49;;;;;;;5.45;4.28;;;19.30;62.60;;;;;;5035030;28;20334;-66
2022/10/29 03:36:16;;;;;;;5.70;4.50;;;19.30;62.50;;;;;;5034973;28;20729;-66
2022/10/29 03:38:43;;;;;;;6.72;4.18;;;19.40;62.40;;;;;;5036103;28;20204;-66
2022/10/29 03:41:10;;;;;;;6.03;4.15;;;19.40;63.00;;;;;;5034473;28;20200;-66
2022/10/29 03:43:39;;;;;;;4.72;4.05;;;19.40;62.10;;;;;;5018721;28;20250;-66
2022/10/29 03:46:06;;;;;;;6.05;4.50;;;19.40;61.90;;;;;;5034918;28;20258;-66
2022/10/29 03:48:33;;;;;;;5.57;4.30;;;19.50;61.90;;;;;;5035031;28;20299;-66
2022/10/29 03:51:01;;;;;;;4.38;3.90;;;19.50;61.90;;;;;;5035120;28;20228;-66
2022/10/29 03:53:28;;;;;;;6.03;4.32;;;19.50;61.70;;;;;;5035229;28;20310;-66
2022/10/29 03:55:56;;;;;;;7.93;4.40;;;19.50;61.50;;;;;;5035795;28;20196;-66
2022/10/29 03:58:23;;;;;;;7.82;4.72;;;19.60;61.60;;;;;;5035961;28;20208;-66
2022/10/29 04:00:55;;;;;;;5.93;4.20;;;19.60;61.60;;;;;;5036489;28;20195;-66
2022/10/29 04:03:22;;;;;;;8.60;4.47;;;19.60;61.60;;;;;;5034904;28;20196;-66
2022/10/29 04:05:49;;;;;;;6.55;4.40;;;19.60;61.40;;;;;;5035155;28;20334;-66
2022/10/29 04:08:16;;;;;;;6.40;4.38;;;19.60;61.40;;;;;;5034929;28;20255;-66
2022/10/29 04:10:45;;;;;;;5.60;4.38;;;19.60;61.40;;;;;;5036033;28;20200;-66
2022/10/29 04:13:12;;;;;;;7.53;4.40;;;19.60;61.40;;;;;;5034558;28;20246;-66
2022/10/29 04:15:39;;;;;;;6.38;4.53;;;19.60;61.40;;;;;;5034703;28;20676;-66
2022/10/29 04:18:08;;;;;;;6.30;4.07;;;19.60;61.40;;;;;;5034582;28;20227;-66
2022/10/29 04:20:35;;;;;;;5.85;4.18;;;19.60;61.30;;;;;;5035038;28;20224;-66
2022/10/29 04:23:02;;;;;;;6.47;4.28;;;19.60;61.30;;;;;;5036741;28;20238;-66
2022/10/29 04:25:29;;;;;;;5.40;4.40;;;19.60;61.30;;;;;;5036157;28;20192;-66
2022/10/29 04:27:56;;;;;;;5.18;4.18;;;19.60;61.30;;;;;;5034771;28;20243;-66
2022/10/29 04:30:23;;;;;;;5.50;4.03;;;19.60;61.30;;;;;;5034238;28;20219;-66
2022/10/29 04:32:50;;;;;;;5.50;3.85;;;19.60;61.40;;;;;;5035128;28;20188;-66
2022/10/29 04:35:19;;;;;;;4.97;4.05;;;19.60;61.20;;;;;;5034333;28;20569;-66
2022/10/29 04:37:46;;;;;;;5.18;3.95;;;19.60;61.30;;;;;;5033809;28;20271;-66
2022/10/29 04:40:13;;;;;;;7.13;4.10;;;19.60;61.50;;;;;;5034160;28;20196;-67
2022/10/29 04:42:40;;;;;;;7.60;4.57;;;19.50;61.50;;;;;;5034133;28;20203;-67
2022/10/29 04:45:08;;;;;;;6.28;4.05;;;19.60;61.60;;;;;;5033854;28;20207;-69
2022/10/29 04:47:35;;;;;;;6.30;4.07;;;19.50;61.60;;;;;;5033862;28;20230;-68
2022/10/29 04:50:03;;;;;;;5.47;4.18;;;19.50;61.90;;;;;;5033800;28;20223;-68
2022/10/29 04:52:33;;;;;;;8.23;4.18;;;19.50;61.90;;;;;;5033815;28;20204;-68
2022/10/29 04:54:59;;;;;;;5.72;4.22;;;19.50;62.10;;;;;;5033685;28;20254;-68
2022/10/29 04:57:28;;;;;;;10.48;4.40;;;19.50;62.20;;;;;;5033485;28;20274;-68
2022/10/29 04:59:55;;;;;;;6.13;3.95;;;19.50;62.20;;;;;;5033479;28;20646;-69
2022/10/29 05:02:22;;;;;;;6.72;4.15;;;19.50;62.60;;;;;;5033751;28;20207;-69
2022/10/29 05:04:48;;;;;;;8.98;4.07;;;19.50;62.30;;;;;;5033501;28;20204;-69
2022/10/29 05:07:16;;;;;;;6.90;4.25;;;19.50;62.60;;;;;;5033256;28;20307;-69
2022/10/29 05:09:44;;;;;;;6.97;3.97;;;19.50;62.60;;;;;;5034887;28;20207;-69
2022/10/29 05:12:11;;;;;;;7.28;4.03;;;19.50;62.70;;;;;;5033616;28;20622;-69
2022/10/29 05:14:38;;;;;;;8.05;4.05;;;19.50;63.10;;;;;;5033542;28;20204;-69
2022/10/29 05:17:05;;;;;;;5.70;4.25;;;19.50;63.10;;;;;;5033762;28;20199;-70
2022/10/29 05:19:32;;;;;;;5.68;3.60;;;19.50;63.20;;;;;;5033267;28;20196;-70
2022/10/29 05:21:59;;;;;;;7.35;4.43;;;19.50;62.90;;;;;;5034448;28;20535;-70
2022/10/29 05:24:26;;;;;;;6.65;3.80;;;19.50;62.90;;;;;;5033220;28;20265;-70
2022/10/29 05:26:55;;;;;;;6.85;4.45;;;19.50;63.00;;;;;;5034744;28;20188;-70
2022/10/29 05:29:22;;;;;;;7.97;4.55;;;19.50;62.80;;;;;;5032989;28;20219;-70
2022/10/29 05:31:49;;;;;;;6.07;3.75;;;19.40;62.70;;;;;;5033348;28;20299;-70
2022/10/29 05:34:16;;;;;;;4.95;3.90;;;19.40;62.70;;;;;;5032775;28;20231;-70
2022/10/29 05:36:43;;;;;;;6.25;3.85;;;19.40;62.70;;;;;;5034144;28;20192;-70
2022/10/29 05:39:10;;;;;;;6.38;4.30;;;19.40;62.80;;;;;;5033145;28;20732;-70
2022/10/29 05:41:37;;;;;;;5.28;3.85;;;19.40;62.70;;;;;;5016767;28;20200;-70
2022/10/29 05:44:06;;;;;;;6.57;4.20;;;19.30;62.50;;;;;;5034397;28;20230;-70
2022/10/29 05:46:33;;;;;;;6.60;3.88;;;19.30;62.50;;;;;;5033233;28;20572;-70
2022/10/29 05:49:00;;;;;;;5.07;4.00;;;19.30;62.50;;;;;;5032491;28;20234;-70
2022/10/29 05:51:27;;;;;;;5.65;3.85;;;19.30;62.30;;;;;;5033777;28;20602;-70
2022/10/29 05:53:54;;;;;;;6.25;3.67;;;19.30;62.20;;;;;;5033031;28;20677;-70
2022/10/29 05:56:21;;;;;;;4.65;3.47;;;19.30;62.00;;;;;;5032700;28;20706;-70
2022/10/29 05:58:49;;;;;;;7.07;3.95;;;19.30;62.00;;;;;;5032548;28;20697;-70
2022/10/29 06:01:18;;;;;;;5.60;3.63;;;19.20;61.70;;;;;;5032913;28;20200;-70
2022/10/29 06:03:45;;;;;;;7.68;4.18;;;19.30;61.90;;;;;;5032282;28;20265;-70
2022/10/29 06:06:12;;;;;;;5.80;3.72;;;19.30;62.10;;;;;;5032636;28;20207;-70
2022/10/29 06:08:39;;;;;;;7.72;4.03;;;19.30;62.10;;;;;;5032224;28;20690;-70
2022/10/29 06:11:06;;;;;;;5.35;3.83;;;19.20;62.30;;;;;;5033950;28;20627;-70
2022/10/29 06:13:34;;;;;;;7.38;4.10;;;19.30;62.40;;;;;;5032435;28;20620;-70
2022/10/29 06:16:01;;;;;;;4.57;3.70;;;19.30;62.40;;;;;;5032679;28;20208;-70
2022/10/29 06:18:30;;;;;;;6.22;4.15;;;19.30;62.20;;;;;;5032453;28;20301;-70
2022/10/29 06:20:58;;;;;;;6.63;3.80;;;19.30;62.00;;;;;;5046921;22;20262;-70
2022/10/29 06:23:25;;;;;;;5.82;4.30;;;19.30;62.00;;;;;;5033587;28;20192;-70
2022/10/29 06:25:52;;;;;;;5.18;4.05;;;19.30;62.00;;;;;;5032954;28;20204;-70
2022/10/29 06:28:19;;;;;;;6.25;4.13;;;19.40;62.00;;;;;;5034263;28;20211;-70
2022/10/29 06:30:47;;;;;;;7.32;4.20;;;19.40;61.90;;;;;;5034653;28;20212;-70
2022/10/29 06:33:16;;;;;;;5.55;3.72;;;19.40;61.70;;;;;;5032903;28;20196;-70
2022/10/29 06:35:44;;;;;;;6.30;3.70;;;19.40;61.60;;;;;;5034356;28;20262;-70
2022/10/29 06:38:11;;;;;;;6.72;3.92;;;19.40;61.30;;;;;;5033241;28;20222;-70
2022/10/29 06:40:38;;;;;;;5.45;4.00;;;19.40;61.10;;;;;;5033217;28;20315;-71
2022/10/29 06:43:06;;;;;;;4.72;4.00;;;19.40;61.20;;;;;;5032794;28;20242;-71
2022/10/29 06:45:33;;;;;;;4.35;3.60;;;19.40;61.20;;;;;;5032869;28;20266;-71
2022/10/29 06:48:00;;;;;;;5.53;3.70;;;19.40;61.10;;;;;;5032705;28;20593;-71
2022/10/29 06:50:28;;;;;;;4.88;3.70;;;19.40;61.00;;;;;;5033280;28;20228;-71
2022/10/29 06:52:57;;;;;;;5.28;3.65;;;19.30;60.90;;;;;;5032668;28;20200;-71
2022/10/29 06:55:24;;;;;;;4.25;3.55;;;19.40;60.90;;;;;;5033340;28;20674;-71
2022/10/29 06:57:59;;;;;;;5.28;3.60;;;19.40;60.80;;;;;;5032301;28;20226;-71
2022/10/29 07:00:26;;;;;;;5.75;3.67;;;19.40;60.80;;;;;;5032692;28;20245;-71
2022/10/29 07:02:53;;;;;;;5.72;3.53;;;19.50;60.90;;;;;;5032589;28;20228;-71
2022/10/29 07:05:20;;;;;;;4.60;3.60;;;19.40;60.70;;;;;;5033743;28;20196;-71
2022/10/29 07:07:47;;;;;;;4.30;3.72;;;19.50;60.80;;;;;;5032447;28;20570;-71
2022/10/29 07:10:16;;;;;;;4.72;3.85;;;19.40;60.50;;;;;;5033680;28;20678;-71
2022/10/29 07:12:44;;;;;;;6.93;4.10;;;19.50;60.70;;;;;;5034216;28;20220;-71
2022/10/29 07:15:11;;;;;;;4.32;3.38;;;19.50;60.60;;;;;;5033302;28;20197;-71
2022/10/29 07:17:38;;;;;;;3.53;3.22;;;19.50;60.50;;;;;;5038567;28;20231;-71
2022/10/29 07:20:06;;;;;;;6.10;3.42;;;19.50;60.50;;;;;;5026738;28;20271;-71
2022/10/29 07:22:34;;;;;;;4.95;3.38;;;19.60;60.60;;;;;;5054836;28;20192;-71
2022/10/29 07:25:00;;;;;;;6.03;3.83;;;19.60;60.50;;;;;;5059378;28;20183;-71
2022/10/29 07:27:29;;;;;;;4.50;3.42;;;19.60;60.40;;;;;;5059207;28;20204;-71
2022/10/29 07:29:56;;;;;;;5.03;3.55;;;19.60;60.30;;;;;;5051103;28;20212;-71
2022/10/29 07:32:23;;;;;;;5.47;3.60;;;19.60;60.20;;;;;;5037785;28;20214;-71
2022/10/29 07:34:50;;;;;;;5.03;3.63;;;19.60;60.10;;;;;;5037208;28;20224;-71
2022/10/29 07:37:18;;;;;;;5.57;3.90;;;19.70;60.10;;;;;;5035738;28;20239;-70
2022/10/29 07:39:45;;;;;;;5.18;3.53;;;19.80;60.20;;;;;;5019835;28;20192;-69
2022/10/29 07:42:12;;;;;;;5.85;3.63;;;19.80;60.10;;;;;;5035315;28;20215;-69
2022/10/29 07:44:40;;;;;;;5.80;3.40;;;19.90;60.10;;;;;;5035445;28;20204;-69
2022/10/29 07:47:07;;;;;;;4.63;3.45;;;19.90;60.00;;;;;;5036611;28;20212;-69
2022/10/29 07:49:34;;;;;;;4.45;3.28;;;19.90;59.90;;;;;;5036547;28;20211;-69
2022/10/29 07:52:01;;;;;;;5.88;3.65;;;20.00;59.90;;;;;;5035010;28;20208;-69
2022/10/29 07:54:28;;;;;;;3.92;3.25;;;20.10;59.70;;;;;;5035411;28;20196;-69
2022/10/29 07:56:55;;;;;;;4.18;3.15;;;20.30;59.60;;;;;;5034839;28;20607;-69
2022/10/29 07:59:22;;;;;;;4.57;3.45;;;20.40;59.30;;;;;;5034863;28;20200;-70
2022/10/29 08:01:50;;;;;;;6.05;3.83;;;20.50;59.20;;;;;;5034673;28;20238;-70
2022/10/29 08:04:17;;;;;;;6.45;3.45;;;20.60;58.90;;;;;;5035002;28;20207;-70
2022/10/29 08:06:45;;;;;;;6.22;3.30;;;20.70;58.60;;;;;;5034835;28;20203;-70
2022/10/29 08:09:13;;;;;;;3.55;3.13;;;20.90;58.40;;;;;;5034719;28;20204;-69
2022/10/29 08:11:40;;;;;;;5.75;3.50;;;21.00;58.10;;;;;;5035861;28;20557;-69
2022/10/29 08:14:09;;;;;;;4.40;3.75;;;21.20;57.80;;;;;;5034923;28;20207;-69
2022/10/29 08:16:35;;;;;;;5.05;3.47;;;21.30;57.60;;;;;;5034696;28;20200;-69
2022/10/29 08:19:04;;;;;;;5.05;2.90;;;21.40;57.40;;;;;;5034761;28;20216;-69
2022/10/29 08:21:31;;;;;;;5.68;3.55;;;21.50;57.20;;;;;;5034754;28;20658;-69
2022/10/29 08:23:57;;;;;;;4.00;3.50;;;21.60;56.90;;;;;;5034262;28;20200;-69
2022/10/29 08:26:25;;;;;;;4.45;3.40;;;21.70;57.20;;;;;;5034173;28;20196;-69
2022/10/29 08:28:52;;;;;;;4.35;3.10;;;21.70;57.10;;;;;;5035401;28;20219;-69
2022/10/29 08:31:19;;;;;;;3.90;3.20;;;21.80;56.80;;;;;;5017689;28;20302;-69
2022/10/29 08:33:47;;;;;;;4.30;3.20;;;21.90;56.90;;;;;;5034349;28;20203;-69
2022/10/29 08:36:16;;;;;;;3.67;3.00;;;21.90;56.20;;;;;;5034306;28;20634;-70
2022/10/29 08:38:43;;;;;;;3.20;2.90;;;22.10;56.00;;;;;;5034311;28;20604;-70
2022/10/29 08:41:22;;;;;;;3.80;3.15;;;22.20;55.80;;;;;;5034062;28;20196;-70
2022/10/29 08:44:16;;;;;;;5.53;2.90;;;22.30;55.70;;;;;;5035250;28;20234;-70
2022/10/29 08:46:45;;;;;;;3.45;2.95;;;22.40;55.40;;;;;;5031669;28;20204;-69
2022/10/29 08:49:17;;;;;;;4.57;3.40;;;22.40;55.00;;;;;;5033934;28;20612;-69
2022/10/29 08:51:48;;;;;;;4.82;3.45;;;22.50;55.00;;;;;;5034994;28;20291;-69
2022/10/29 08:54:17;;;;;;;3.25;2.85;;;22.50;54.90;;;;;;5033877;28;20215;-69
2022/10/29 08:56:47;;;;;;;3.83;3.00;;;22.50;54.50;;;;;;5033787;28;20196;-69
2022/10/29 08:59:15;;;;;;;3.88;3.00;;;22.60;54.50;;;;;;5034547;28;20207;-69
2022/10/29 09:01:42;;;;;;;3.50;2.92;;;22.70;54.40;;;;;;5034553;28;20196;-69
2022/10/29 09:04:17;;;;;;;3.22;2.63;;;22.70;54.20;;;;;;5034065;28;20197;-72
2022/10/29 09:06:48;;;;;;;3.47;3.03;;;22.80;54.20;;;;;;5036274;28;20176;-72
2022/10/29 09:09:26;;;;;;;3.30;3.00;;;22.80;54.10;;;;;;5034262;28;20207;-72
2022/10/29 09:12:01;;;;;;;3.83;3.08;;;22.80;54.10;;;;;;5034931;28;20520;-72
2022/10/29 09:14:47;;;;;;;4.97;2.90;;;22.70;54.00;;;;;;5033842;28;20196;-72
2022/10/29 09:17:20;;;;;;;2.90;2.70;;;22.80;54.00;;;;;;5033745;28;20662;-72
2022/10/29 09:19:56;;;;;;;4.88;2.92;;;22.70;54.00;;;;;;5033618;28;20218;-72
2022/10/29 09:22:27;;;;;;;3.80;2.95;;;22.70;54.20;;;;;;5033492;28;20203;-72
2022/10/29 09:24:58;;;;;;;4.05;3.15;;;22.70;54.30;;;;;;5033336;28;20570;-70
2022/10/29 09:27:29;;;;;;;3.33;2.80;;;22.60;54.30;;;;;;5033179;28;20243;-70
2022/10/29 09:30:17;;;;;;;3.35;3.05;;;22.60;54.40;;;;;;5033154;28;20673;-70
2022/10/29 09:32:46;;;;;;;4.07;2.67;;;22.50;54.40;;;;;;5034463;28;20259;-70
2022/10/29 09:35:14;;;;;;;3.58;3.00;;;22.50;54.50;;;;;;5033865;28;20196;-69
2022/10/29 09:37:45;;;;;;;4.95;2.97;;;22.50;54.50;;;;;;5033323;28;20216;-69
2022/10/29 09:40:26;;;;;;;3.15;2.85;;;22.50;54.60;;;;;;5032497;28;20188;-69
2022/10/29 09:42:53;;;;;;;3.28;2.92;;;22.50;54.60;;;;;;5033819;28;20286;-69
2022/10/29 09:45:23;;;;;;;3.30;2.50;;;22.50;54.60;;;;;;5016237;28;20200;-69
2022/10/29 09:47:55;;;;;;;3.47;2.95;;;22.40;54.60;;;;;;5032523;28;20228;-69
2022/10/29 09:50:26;;;;;;;3.75;3.03;;;22.40;54.60;;;;;;5033330;28;20226;-69
2022/10/29 09:52:54;;;;;;;4.80;2.92;;;22.40;54.60;;;;;;5033858;28;20516;-69
2022/10/29 09:55:23;;;;;;;4.57;2.80;;;22.40;54.60;;;;;;5032979;28;20196;-69
2022/10/29 09:57:50;;;;;;;2.70;2.50;;;22.40;54.70;;;;;;5032480;28;20777;-69
2022/10/29 10:00:21;;;;;;;3.20;2.88;;;22.40;54.70;;;;;;5032746;28;20286;-69
2022/10/29 10:02:53;;;;;;;4.10;2.80;;;22.40;54.70;;;;;;5033980;28;20689;-69
2022/10/29 10:05:23;;;;;;;3.30;2.95;;;22.40;54.80;;;;;;5032329;28;20192;-69
2022/10/29 10:08:05;;;;;;;3.53;2.70;;;22.30;54.70;;;;;;5032210;28;20223;-69
2022/10/29 10:10:32;;;;;;;3.92;2.60;;;22.40;54.80;;;;;;5033700;28;20211;-69
2022/10/29 10:13:02;;;;;;;3.75;2.90;;;22.30;54.80;;;;;;5032174;28;20685;-69
2022/10/29 10:15:30;;;;;;;3.47;2.75;;;22.30;54.80;;;;;;5032516;28;20642;-69
2022/10/29 10:17:59;;;;;;;3.03;2.70;;;22.30;54.90;;;;;;5032244;28;20216;-69
2022/10/29 10:20:38;;;;;;;3.05;2.75;;;22.30;54.90;;;;;;5032159;28;20204;-69
2022/10/29 10:23:41;;;;;;;3.28;2.95;;;22.30;55.00;;;;;;5016100;28;20199;-69
2022/10/29 10:26:27;;;;;;;4.10;2.90;;;22.20;54.90;;;;;;5032162;28;20211;-69
2022/10/29 10:29:09;;;;;;;4.05;3.00;;;22.20;55.00;;;;;;5032429;28;20306;-69
2022/10/29 10:31:37;;;;;;;3.88;2.78;;;22.20;55.10;;;;;;5032156;28;20203;-69
2022/10/29 10:34:08;;;;;;;3.90;2.83;;;22.20;55.10;;;;;;5032107;28;20223;-69
2022/10/29 10:36:38;;;;;;;4.45;2.90;;;22.20;55.20;;;;;;5031951;28;20284;-69
2022/10/29 10:39:13;;;;;;;3.92;2.88;;;22.20;55.20;;;;;;5032276;28;20227;-70
2022/10/29 10:41:40;;;;;;;3.60;2.70;;;22.20;55.20;;;;;;5032103;28;20183;-70
2022/10/29 10:44:07;;;;;;;2.97;2.65;;;22.20;55.30;;;;;;5031891;28;20196;-69
2022/10/29 10:46:34;;;;;;;3.17;2.80;;;22.20;55.40;;;;;;5032167;28;20547;-69
2022/10/29 10:49:04;;;;;;;3.10;2.78;;;22.10;55.30;;;;;;5033316;28;20223;-69
2022/10/29 10:51:32;;;;;;;3.05;2.78;;;22.20;55.40;;;;;;5035206;28;20212;-69
2022/10/29 10:54:07;;;;;;;3.38;2.72;;;22.20;55.50;;;;;;5035779;28;20196;-69
2022/10/29 10:56:35;;;;;;;3.15;2.60;;;22.10;55.40;;;;;;5035877;28;20287;-69
2022/10/29 10:59:06;;;;;;;3.72;2.88;;;22.10;55.40;;;;;;5034988;28;20220;-69
2022/10/29 11:01:36;;;;;;;3.17;2.85;;;22.10;55.50;;;;;;5035886;28;20196;-69
2022/10/29 11:04:09;;;;;;;3.10;2.80;;;22.10;55.60;;;;;;5036281;28;20199;-69
2022/10/29 11:06:38;;;;;;;3.00;2.70;;;22.10;55.80;;;;;;5037332;28;20267;-69
2022/10/29 11:09:12;;;;;;;2.75;2.53;;;22.10;55.80;;;;;;5036211;28;20673;-69
2022/10/29 11:11:40;;;;;;;3.63;2.92;;;22.10;55.80;;;;;;5035905;28;20216;-69
2022/10/29 11:14:10;;;;;;;2.72;2.50;;;22.10;55.80;;;;;;5037596;28;20646;-69
2022/10/29 11:16:40;;;;;;;2.88;2.60;;;22.20;55.80;;;;;;5036459;28;20242;-69
2022/10/29 11:19:12;;;;;;;3.67;3.10;;;22.20;55.70;;;;;;5036062;28;20690;-69
2022/10/29 11:21:40;;;;;;;3.25;2.95;;;22.20;55.70;;;;;;5036380;28;20295;-69
2022/10/29 11:24:10;;;;;;;3.00;2.60;;;22.20;55.60;;;;;;5019523;28;20676;-69
2022/10/29 11:26:39;;;;;;;3.85;2.92;;;22.30;55.60;;;;;;5036357;28;20200;-69
2022/10/29 11:29:12;;;;;;;3.58;2.97;;;22.30;55.60;;;;;;5036635;28;20216;-69
2022/10/29 11:31:41;;;;;;;4.40;2.80;;;22.30;55.60;;;;;;5036781;28;20649;-69
2022/10/29 11:34:11;;;;;;;2.90;2.65;;;22.30;56.30;;;;;;5036246;28;20633;-69
2022/10/29 11:36:40;;;;;;;3.55;3.03;;;22.30;55.80;;;;;;5036426;28;20281;-69
2022/10/29 11:39:12;;;;;;;3.53;2.85;;;22.30;55.80;;;;;;5035948;28;20216;-69
2022/10/29 11:41:43;;;;;;;3.17;2.88;;;22.30;55.90;;;;;;5035784;28;20542;-70
2022/10/29 11:44:10;;;;;;;3.65;2.78;;;22.30;55.80;;;;;;5035754;28;20294;-70
2022/10/29 11:46:41;;;;;;;3.22;2.92;;;22.30;55.80;;;;;;5036044;28;20203;-70
2022/10/29 11:52:00;;;;;;;2.85;2.60;;;22.40;55.90;;;;;;5041367;22;20251;-71
2022/10/29 11:54:41;;;;;;;3.35;3.05;;;22.40;55.70;;;;;;5078489;22;20227;-64
2022/10/29 11:57:10;;;;;;;3.50;2.60;;;22.40;55.60;;;;;;5035202;28;20192;-64
2022/10/29 11:59:44;;;;;;;3.33;2.95;;;22.50;55.90;;;;;;5036411;28;20566;-65
2022/10/29 12:02:21;;;;;;;4.13;3.00;;;22.50;55.90;;;;;;5034605;28;20203;-64
2022/10/29 12:04:50;;;;;;;5.65;3.10;;;22.50;56.00;;;;;;5035431;28;20200;-65
2022/10/29 12:07:27;;;;;;;4.57;3.00;;;22.50;56.20;;;;;;5035392;28;20199;-65
2022/10/29 12:10:12;;;;;;;4.75;3.30;;;22.50;56.30;;;;;;5035431;28;20306;-65
2022/10/29 12:12:43;;;;;;;5.75;3.42;;;22.60;56.60;;;;;;5035351;28;20223;-65
2022/10/29 12:15:17;;;;;;;3.83;3.28;;;22.60;56.60;;;;;;5037107;28;20204;-64
2022/10/29 12:17:46;;;;;;;3.97;3.17;;;22.60;56.90;;;;;;5034872;28;20241;-67
2022/10/29 12:20:16;;;;;;;4.88;3.47;;;22.60;57.10;;;;;;5034412;28;20231;-65
2022/10/29 12:22:45;;;;;;;5.00;3.60;;;22.60;57.30;;;;;;5034334;28;20196;-65
2022/10/29 12:25:27;;;;;;;8.23;3.50;;;22.60;57.60;;;;;;5034364;28;20254;-65
2022/10/29 12:28:01;;;;;;;4.80;3.40;;;22.60;57.90;;;;;;5035085;28;20586;-66
2022/10/29 12:30:28;;;;;;;6.47;3.50;;;22.60;57.90;;;;;;5034548;28;20671;-66
2022/10/29 12:32:59;;;;;;;5.32;3.50;;;22.60;57.80;;;;;;5034218;28;20212;-66
2022/10/29 12:35:29;;;;;;;6.57;3.53;;;22.60;57.80;;;;;;5034607;28;20185;-66
2022/10/29 12:38:11;;;;;;;6.85;3.90;;;22.60;57.80;;;;;;5034387;28;20269;-66
2022/10/29 12:40:41;;;;;;;6.75;3.75;;;22.60;57.80;;;;;;5035790;28;20222;-66
2022/10/29 12:43:12;;;;;;;5.38;3.78;;;22.60;57.80;;;;;;5035227;28;20192;-65
2022/10/29 12:45:41;;;;;;;7.18;3.88;;;22.60;57.90;;;;;;5033948;28;20191;-65
2022/10/29 12:48:10;;;;;;;7.55;3.53;;;22.60;57.90;;;;;;5034174;28;20208;-66
2022/10/29 12:50:44;;;;;;;7.05;3.90;;;22.60;57.80;;;;;;5033893;28;20219;-65
2022/10/29 12:53:16;;;;;;;8.30;4.38;;;22.60;57.80;;;;;;5035332;28;20172;-65
2022/10/29 12:55:45;;;;;;;7.07;3.90;;;22.60;57.90;;;;;;5033708;28;20674;-65
2022/10/29 12:58:52;;;;;;;6.53;4.20;;;22.60;57.90;;;;;;5035348;28;20202;-65
2022/10/29 13:01:45;;;;;;;6.97;4.07;;;22.60;58.00;;;;;;5029573;28;20199;-65
2022/10/29 13:04:23;;;;;;;6.95;3.83;;;22.60;58.00;;;;;;5035180;28;20585;-65
2022/10/29 13:07:04;;;;;;;5.88;3.80;;;22.60;58.30;;;;;;5034818;28;20216;-65